Time;durP1;ratioP1;P1;durP2;ratioP2;P2;SDS_P1;SDS_P2;PMS_P1;PMS_P2;Temp;Humidity;BMP_temperature;BMP_pressure;BME280_temperature;BME280_humidity;BME280_pressure;Samples;Min_cycle;Max_cycle;Signal;HPM_P1;HPM_P2
2022/04/06 00:00:03;;;;;;;22.75;6.65;;;;;;;;;;5083126;28;20105;-74
2022/04/06 00:02:30;;;;;;;19.42;6.47;;;;;;;;;;5084725;28;20059;-74
2022/04/06 00:05:00;;;;;;;22.95;6.85;;;;;;;;;;5084383;28;20856;-74
2022/04/06 00:07:27;;;;;;;20.80;6.88;;;;;;;;;;5080954;28;20049;-74
2022/04/06 00:09:54;;;;;;;31.73;6.85;;;;;;;;;;5082197;28;20075;-75
2022/04/06 00:12:22;;;;;;;26.35;7.78;;;;;;;;;;5085332;28;20048;-75
2022/04/06 00:14:49;;;;;;;24.30;7.00;;;;;;;;;;5083625;28;20059;-75
2022/04/06 00:17:16;;;;;;;29.38;8.07;;;;;;;;;;5085088;28;20490;-74
2022/04/06 00:19:44;;;;;;;24.15;7.63;;;;;;;;;;5077475;28;20048;-75
2022/04/06 00:22:12;;;;;;;25.65;7.10;;;;;;;;;;5084146;28;20432;-74
2022/04/06 00:24:39;;;;;;;26.30;7.35;;;;;;;;;;5082660;28;20075;-74
2022/04/06 00:27:07;;;;;;;35.03;8.48;;;;;;;;;;5085393;28;20458;-74
2022/04/06 00:29:34;;;;;;;20.58;6.72;;;;;;;;;;5083016;28;20129;-74
2022/04/06 00:32:01;;;;;;;26.92;7.55;;;;;;;;;;5080108;28;20060;-75
2022/04/06 00:37:14;;;;;;;24.45;7.15;;;;;;;;;;5082257;28;20594;-74
2022/04/06 00:39:42;;;;;;;20.80;6.20;;;;;;;;;;5081959;28;20051;-74
2022/04/06 00:42:09;;;;;;;23.95;6.63;;;;;;;;;;5082481;28;20406;-75
2022/04/06 00:44:37;;;;;;;24.63;5.75;;;;;;;;;;5084968;28;20074;-75
2022/04/06 00:47:04;;;;;;;27.58;5.63;;;;;;;;;;5115343;27;20131;-75
2022/04/06 00:49:32;;;;;;;28.45;6.88;;;;;;;;;;5080388;28;20049;-74
2022/04/06 00:52:00;;;;;;;21.63;5.82;;;;;;;;;;5081214;28;20048;-74
2022/04/06 00:54:30;;;;;;;21.15;5.25;;;;;;;;;;5077559;28;20130;-75
2022/04/06 00:56:58;;;;;;;25.30;5.93;;;;;;;;;;5084704;28;20044;-74
2022/04/06 00:59:26;;;;;;;22.13;4.97;;;;;;;;;;5078200;28;20055;-74
2022/04/06 01:01:54;;;;;;;18.95;5.28;;;;;;;;;;5085153;28;20101;-75
2022/04/06 01:04:21;;;;;;;23.35;5.40;;;;;;;;;;5081683;28;20048;-74
2022/04/06 01:06:49;;;;;;;24.75;5.47;;;;;;;;;;5082131;28;20121;-75
2022/04/06 01:09:17;;;;;;;20.75;4.30;;;;;;;;;;5084656;28;20054;-74
2022/04/06 01:11:47;;;;;;;20.33;4.57;;;;;;;;;;5081652;28;20048;-74
2022/04/06 01:14:15;;;;;;;16.95;3.72;;;;;;;;;;5084645;28;20040;-74
2022/04/06 01:16:42;;;;;;;20.23;4.43;;;;;;;;;;5083530;28;20039;-74
2022/04/06 01:19:09;;;;;;;21.23;4.43;;;;;;;;;;5082960;28;20052;-74
2022/04/06 01:21:37;;;;;;;16.00;3.47;;;;;;;;;;5113217;27;20056;-74
2022/04/06 01:24:05;;;;;;;23.33;4.50;;;;;;;;;;5085063;28;20063;-74
2022/04/06 01:26:34;;;;;;;20.90;4.13;;;;;;;;;;5082781;28;20510;-74
2022/04/06 01:29:02;;;;;;;18.85;3.95;;;;;;;;;;5083787;28;20056;-74
2022/04/06 01:31:29;;;;;;;20.27;4.60;;;;;;;;;;5115691;27;20071;-74
2022/04/06 01:33:56;;;;;;;21.65;4.50;;;;;;;;;;5082222;28;20051;-74
2022/04/06 01:36:23;;;;;;;22.60;4.35;;;;;;;;;;5084071;28;20434;-74
2022/04/06 01:38:50;;;;;;;23.88;4.53;;;;;;;;;;5082202;28;20052;-74
2022/04/06 01:41:19;;;;;;;25.73;4.70;;;;;;;;;;5084806;28;20055;-74
2022/04/06 01:43:46;;;;;;;25.50;4.22;;;;;;;;;;5117506;27;20055;-74
2022/04/06 01:46:14;;;;;;;23.98;4.60;;;;;;;;;;5079204;28;20064;-74
2022/04/06 01:52:12;;;;;;;23.15;3.90;;;;;;;;;;5080985;28;20071;-73
2022/04/06 01:54:13;;;;;;;17.00;4.10;;;;;;;;;;5083928;28;20055;-73
2022/04/06 01:56:42;;;;;;;23.35;3.72;;;;;;;;;;5083111;28;20056;-73
2022/04/06 01:59:09;;;;;;;16.05;3.20;;;;;;;;;;5080948;28;20064;-73
2022/04/06 02:01:37;;;;;;;17.20;2.97;;;;;;;;;;5086165;28;20064;-73
2022/04/06 02:04:06;;;;;;;29.38;3.88;;;;;;;;;;5084778;28;20051;-73
2022/04/06 02:06:33;;;;;;;20.77;2.88;;;;;;;;;;5086054;28;20433;-73
2022/04/06 02:09:00;;;;;;;17.45;2.75;;;;;;;;;;5085007;28;20418;-73
2022/04/06 02:11:28;;;;;;;16.88;3.00;;;;;;;;;;5084814;28;20066;-73
2022/04/06 02:13:57;;;;;;;16.48;2.83;;;;;;;;;;5081680;28;20060;-73
2022/04/06 02:16:24;;;;;;;18.70;3.05;;;;;;;;;;5085460;28;20044;-73
2022/04/06 02:18:52;;;;;;;19.42;3.15;;;;;;;;;;5087393;28;20125;-73
2022/04/06 02:21:19;;;;;;;18.95;3.47;;;;;;;;;;5083022;28;20062;-73
2022/04/06 02:23:46;;;;;;;18.70;3.00;;;;;;;;;;5084883;28;20056;-73
2022/04/06 02:26:13;;;;;;;22.77;3.00;;;;;;;;;;5114112;27;20063;-73
2022/04/06 02:28:41;;;;;;;20.08;3.33;;;;;;;;;;5087199;28;20056;-73
2022/04/06 02:31:09;;;;;;;17.55;3.13;;;;;;;;;;5088814;28;20044;-73
2022/04/06 02:33:37;;;;;;;21.63;3.17;;;;;;;;;;5084034;28;20048;-73
2022/04/06 02:36:04;;;;;;;19.02;3.65;;;;;;;;;;5087742;28;20086;-73
2022/04/06 02:38:31;;;;;;;19.63;3.65;;;;;;;;;;5087355;28;20052;-73
2022/04/06 02:40:58;;;;;;;18.27;3.40;;;;;;;;;;5085530;28;20052;-73
2022/04/06 02:43:26;;;;;;;22.73;3.75;;;;;;;;;;5086214;28;20117;-73
2022/04/06 02:45:53;;;;;;;19.17;3.40;;;;;;;;;;5086054;28;20109;-73
2022/04/06 02:48:21;;;;;;;19.48;3.97;;;;;;;;;;5086171;28;20051;-73
2022/04/06 02:50:49;;;;;;;28.48;4.43;;;;;;;;;;5082684;28;20120;-73
2022/04/06 02:53:16;;;;;;;15.55;3.88;;;;;;;;;;5086629;28;20059;-72
2022/04/06 02:55:43;;;;;;;24.27;4.47;;;;;;;;;;5083440;28;20117;-72
2022/04/06 02:58:10;;;;;;;22.45;3.70;;;;;;;;;;5087535;28;20520;-72
2022/04/06 03:00:37;;;;;;;21.75;4.30;;;;;;;;;;5085345;28;20062;-72
2022/04/06 03:03:05;;;;;;;19.13;4.25;;;;;;;;;;5118715;27;20056;-72
2022/04/06 03:05:33;;;;;;;18.58;4.05;;;;;;;;;;5087267;28;20063;-72
2022/04/06 03:08:00;;;;;;;28.02;4.90;;;;;;;;;;5087142;28;20063;-72
2022/04/06 03:10:28;;;;;;;23.63;4.43;;;;;;;;;;5085876;28;20498;-72
2022/04/06 03:12:55;;;;;;;19.23;4.72;;;;;;;;;;5083249;28;20071;-72
2022/04/06 03:15:22;;;;;;;21.10;4.60;;;;;;;;;;5085754;28;20051;-72
2022/04/06 03:17:49;;;;;;;18.73;4.05;;;;;;;;;;5086375;28;20048;-72
2022/04/06 03:20:17;;;;;;;29.20;5.60;;;;;;;;;;5081986;28;20044;-71
2022/04/06 03:22:45;;;;;;;24.35;5.35;;;;;;;;;;5086062;28;20052;-71
2022/04/06 03:25:13;;;;;;;27.38;5.53;;;;;;;;;;5085090;28;20116;-71
2022/04/06 03:27:40;;;;;;;25.98;5.53;;;;;;;;;;5083776;28;20048;-72
2022/04/06 03:30:10;;;;;;;30.05;5.80;;;;;;;;;;5086207;28;20048;-72
2022/04/06 03:32:37;;;;;;;27.40;6.38;;;;;;;;;;5085710;28;20086;-72
2022/04/06 03:35:04;;;;;;;31.98;6.88;;;;;;;;;;5083803;28;20085;-72
2022/04/06 03:37:32;;;;;;;26.55;5.80;;;;;;;;;;5083785;28;20410;-72
2022/04/06 03:40:01;;;;;;;26.15;5.82;;;;;;;;;;5120355;27;20048;-72
2022/04/06 03:42:28;;;;;;;30.85;6.20;;;;;;;;;;5083505;28;20058;-72
2022/04/06 03:44:55;;;;;;;30.45;6.72;;;;;;;;;;5081495;28;20452;-72
2022/04/06 03:47:29;;;;;;;32.97;7.07;;;;;;;;;;5081563;28;20063;-73
2022/04/06 03:49:56;;;;;;;26.00;6.45;;;;;;;;;;5112447;27;20052;-72
2022/04/06 03:52:23;;;;;;;28.90;7.10;;;;;;;;;;5081910;28;20048;-72
2022/04/06 03:54:50;;;;;;;38.38;8.13;;;;;;;;;;5081318;28;20048;-72
2022/04/06 03:57:19;;;;;;;29.45;6.15;;;;;;;;;;5084791;28;20044;-72
2022/04/06 03:59:46;;;;;;;33.65;6.30;;;;;;;;;;5081518;28;20101;-72
2022/04/06 04:02:13;;;;;;;36.45;7.05;;;;;;;;;;5081981;28;20878;-72
2022/04/06 04:04:41;;;;;;;28.92;6.15;;;;;;;;;;5079448;28;20117;-72
2022/04/06 04:07:08;;;;;;;43.40;8.02;;;;;;;;;;5085780;28;20059;-72
2022/04/06 04:09:35;;;;;;;40.95;6.50;;;;;;;;;;5087436;28;20552;-72
2022/04/06 04:12:03;;;;;;;41.55;7.68;;;;;;;;;;5079693;28;20420;-72
2022/04/06 04:14:34;;;;;;;39.28;7.40;;;;;;;;;;5080747;28;20058;-72
2022/04/06 04:17:01;;;;;;;33.72;6.93;;;;;;;;;;5082387;28;20053;-73
2022/04/06 04:19:28;;;;;;;45.83;8.82;;;;;;;;;;5121520;27;20044;-73
2022/04/06 04:21:55;;;;;;;39.55;8.32;;;;;;;;;;5084217;28;20040;-73
2022/04/06 04:24:22;;;;;;;38.10;7.30;;;;;;;;;;5081733;28;20048;-73
2022/04/06 04:26:50;;;;;;;33.58;6.22;;;;;;;;;;5082501;28;20396;-73
2022/04/06 04:29:17;;;;;;;37.88;7.93;;;;;;;;;;5082538;28;20106;-73
2022/04/06 04:31:46;;;;;;;36.97;6.93;;;;;;;;;;5088481;28;20656;-73
2022/04/06 04:34:13;;;;;;;31.90;7.38;;;;;;;;;;5088104;28;20411;-73
2022/04/06 04:36:41;;;;;;;40.90;7.78;;;;;;;;;;5088392;28;20059;-73
2022/04/06 04:39:08;;;;;;;48.97;8.43;;;;;;;;;;5087035;28;20543;-73
2022/04/06 04:41:35;;;;;;;39.80;7.53;;;;;;;;;;5108230;27;20057;-73
2022/04/06 04:44:02;;;;;;;40.35;7.55;;;;;;;;;;5079369;28;20402;-73
2022/04/06 04:46:29;;;;;;;39.35;7.65;;;;;;;;;;5112403;27;21693;-73
2022/04/06 04:48:58;;;;;;;38.25;6.63;;;;;;;;;;5080605;28;20050;-73
2022/04/06 04:51:25;;;;;;;48.97;7.47;;;;;;;;;;5078058;28;20059;-73
2022/04/06 04:53:52;;;;;;;46.80;8.45;;;;;;;;;;5084076;28;20098;-73
2022/04/06 04:56:19;;;;;;;45.80;8.35;;;;;;;;;;5083621;28;20097;-73
2022/04/06 04:58:47;;;;;;;36.70;7.38;;;;;;;;;;5080718;28;20055;-73
2022/04/06 05:01:14;;;;;;;40.17;7.60;;;;;;;;;;5109183;27;20063;-74
2022/04/06 05:03:41;;;;;;;42.67;8.05;;;;;;;;;;5082153;28;20131;-74
2022/04/06 05:06:10;;;;;;;41.38;7.88;;;;;;;;;;5090290;28;20126;-74
2022/04/06 05:08:37;;;;;;;53.38;7.80;;;;;;;;;;5112889;27;20040;-74
2022/04/06 05:11:04;;;;;;;37.05;7.40;;;;;;;;;;5122498;27;20071;-74
2022/04/06 05:13:32;;;;;;;49.97;7.95;;;;;;;;;;5085533;28;20134;-74
2022/04/06 05:15:59;;;;;;;41.63;7.38;;;;;;;;;;5088277;28;20561;-74
2022/04/06 05:18:29;;;;;;;39.13;7.15;;;;;;;;;;5088489;28;20482;-74
2022/04/06 05:20:56;;;;;;;44.45;7.72;;;;;;;;;;5089264;28;20043;-74
2022/04/06 05:23:25;;;;;;;37.58;7.65;;;;;;;;;;5086172;28;20044;-74
2022/04/06 05:25:52;;;;;;;42.92;7.47;;;;;;;;;;5112875;27;20063;-74
2022/04/06 05:28:19;;;;;;;38.17;6.70;;;;;;;;;;5087072;28;20048;-74
2022/04/06 05:30:47;;;;;;;34.53;7.10;;;;;;;;;;5085249;28;20059;-74
2022/04/06 05:33:14;;;;;;;37.25;7.07;;;;;;;;;;5086178;28;20954;-74
2022/04/06 05:35:42;;;;;;;37.15;6.88;;;;;;;;;;5089950;28;20056;-74
2022/04/06 05:38:09;;;;;;;35.00;6.63;;;;;;;;;;5089990;28;20786;-74
2022/04/06 05:40:38;;;;;;;40.00;6.95;;;;;;;;;;5086544;28;20070;-74
2022/04/06 05:43:05;;;;;;;35.92;6.97;;;;;;;;;;5088141;28;20070;-74
2022/04/06 05:45:32;;;;;;;34.50;6.65;;;;;;;;;;5086658;28;20067;-74
2022/04/06 05:48:00;;;;;;;47.05;6.60;;;;;;;;;;5109402;27;20056;-74
2022/04/06 05:50:27;;;;;;;36.55;6.75;;;;;;;;;;5081363;28;20075;-74
2022/04/06 05:52:54;;;;;;;38.03;7.15;;;;;;;;;;5084568;28;20047;-74
2022/04/06 05:55:21;;;;;;;42.55;6.53;;;;;;;;;;5081810;28;20056;-74
2022/04/06 05:57:50;;;;;;;38.72;6.70;;;;;;;;;;5085801;28;20441;-74
2022/04/06 06:00:18;;;;;;;34.35;7.32;;;;;;;;;;5087380;28;20122;-74
2022/04/06 06:02:45;;;;;;;33.88;7.55;;;;;;;;;;5083458;28;20410;-73
2022/04/06 06:05:13;;;;;;;40.78;6.13;;;;;;;;;;5086127;28;20067;-74
2022/04/06 06:07:40;;;;;;;39.90;6.32;;;;;;;;;;5080659;28;20414;-74
2022/04/06 06:10:08;;;;;;;35.67;6.25;;;;;;;;;;5115685;27;20238;-74
2022/04/06 06:12:36;;;;;;;34.50;7.63;;;;;;;;;;5083229;28;20113;-74
2022/04/06 06:15:06;;;;;;;37.78;6.63;;;;;;;;;;5084638;28;20057;-74
2022/04/06 06:17:37;;;;;;;35.95;5.30;;;;;;;;;;5085522;28;20055;-74
2022/04/06 06:20:04;;;;;;;33.67;5.35;;;;;;;;;;5079154;28;20098;-74
2022/04/06 06:22:32;;;;;;;27.00;4.97;;;;;;;;;;5085629;28;20048;-74
2022/04/06 06:24:59;;;;;;;33.22;5.38;;;;;;;;;;5113843;27;20444;-74
2022/04/06 06:27:26;;;;;;;32.78;5.38;;;;;;;;;;5089783;28;20055;-74
2022/04/06 06:29:53;;;;;;;43.05;5.45;;;;;;;;;;5112566;27;20059;-74
2022/04/06 06:32:22;;;;;;;26.23;4.03;;;;;;;;;;5087471;28;20051;-74
2022/04/06 06:34:49;;;;;;;35.83;5.68;;;;;;;;;;5082137;28;20052;-74
2022/04/06 06:37:16;;;;;;;30.20;5.38;;;;;;;;;;5076404;28;20040;-74
2022/04/06 06:39:44;;;;;;;29.42;5.40;;;;;;;;;;5084189;28;20078;-74
2022/04/06 06:42:11;;;;;;;42.47;6.15;;;;;;;;;;5081704;28;20044;-74
2022/04/06 06:44:38;;;;;;;28.15;5.43;;;;;;;;;;5114373;27;20040;-74
2022/04/06 06:47:05;;;;;;;31.20;5.30;;;;;;;;;;5080074;28;20074;-74
2022/04/06 06:49:34;;;;;;;32.35;4.95;;;;;;;;;;5080813;28;20507;-74
2022/04/06 06:52:01;;;;;;;37.63;5.60;;;;;;;;;;5083707;28;20051;-74
2022/04/06 06:54:28;;;;;;;30.40;4.82;;;;;;;;;;5107062;27;20044;-74
2022/04/06 06:56:55;;;;;;;33.10;5.90;;;;;;;;;;5083388;28;20520;-73
2022/04/06 06:59:23;;;;;;;49.00;6.20;;;;;;;;;;5082506;28;20057;-74
2022/04/06 07:01:50;;;;;;;39.95;5.65;;;;;;;;;;5080107;28;20551;-74
2022/04/06 07:04:17;;;;;;;27.88;4.75;;;;;;;;;;5081988;28;20130;-74
2022/04/06 07:06:46;;;;;;;37.03;5.40;;;;;;;;;;5076228;28;20052;-74
2022/04/06 07:09:13;;;;;;;34.88;4.90;;;;;;;;;;5081007;28;20051;-74
2022/04/06 07:11:40;;;;;;;29.77;4.97;;;;;;;;;;5083042;28;21086;-74
2022/04/06 07:14:07;;;;;;;33.22;4.80;;;;;;;;;;5084085;28;20051;-74
2022/04/06 07:16:35;;;;;;;30.60;4.53;;;;;;;;;;5076863;28;20052;-74
2022/04/06 07:19:02;;;;;;;28.15;4.72;;;;;;;;;;5079710;28;20059;-73
2022/04/06 07:21:29;;;;;;;34.38;4.68;;;;;;;;;;5078458;28;20451;-73
2022/04/06 07:23:58;;;;;;;26.73;5.15;;;;;;;;;;5076445;28;20048;-73
2022/04/06 07:26:25;;;;;;;31.67;5.13;;;;;;;;;;5081162;28;20055;-73
2022/04/06 07:28:53;;;;;;;33.20;5.00;;;;;;;;;;5081128;28;20048;-73
2022/04/06 07:31:20;;;;;;;25.20;5.00;;;;;;;;;;5075692;28;20055;-73
2022/04/06 07:33:47;;;;;;;36.75;5.45;;;;;;;;;;5077491;28;20067;-73
2022/04/06 07:36:14;;;;;;;36.03;5.07;;;;;;;;;;5075313;28;20460;-73
2022/04/06 07:38:42;;;;;;;38.95;5.38;;;;;;;;;;5073099;28;20071;-73
2022/04/06 07:41:10;;;;;;;35.65;5.18;;;;;;;;;;5075083;28;20056;-73
2022/04/06 07:43:37;;;;;;;32.90;5.20;;;;;;;;;;5082002;28;20403;-74
2022/04/06 07:46:05;;;;;;;34.10;4.82;;;;;;;;;;5080958;28;20052;-74
2022/04/06 07:48:32;;;;;;;35.22;5.68;;;;;;;;;;5086925;28;20109;-74
2022/04/06 07:51:00;;;;;;;39.55;5.05;;;;;;;;;;5087110;28;20056;-74
2022/04/06 07:53:27;;;;;;;21.80;4.00;;;;;;;;;;5084956;28;20036;-75
2022/04/06 07:55:54;;;;;;;23.13;4.30;;;;;;;;;;5080297;28;20561;-74
2022/04/06 07:58:23;;;;;;;29.88;4.55;;;;;;;;;;5086838;28;20048;-74
2022/04/06 08:00:51;;;;;;;28.35;4.22;;;;;;;;;;5083370;28;20175;-74
2022/04/06 08:03:18;;;;;;;32.83;4.30;;;;;;;;;;5078763;28;20040;-74
2022/04/06 08:05:45;;;;;;;23.50;4.03;;;;;;;;;;5075975;28;20459;-75
2022/04/06 08:08:13;;;;;;;34.08;4.72;;;;;;;;;;5082630;28;20160;-74
2022/04/06 08:10:40;;;;;;;33.83;4.40;;;;;;;;;;5071805;28;20609;-74
2022/04/06 08:13:07;;;;;;;20.98;4.07;;;;;;;;;;5071462;28;20086;-74
2022/04/06 08:15:36;;;;;;;31.95;3.67;;;;;;;;;;5080554;28;20052;-74
2022/04/06 08:18:03;;;;;;;26.80;4.38;;;;;;;;;;5075810;28;20056;-75
2022/04/06 08:20:30;;;;;;;26.15;4.28;;;;;;;;;;5072262;28;21293;-75
2022/04/06 08:22:58;;;;;;;25.00;3.55;;;;;;;;;;5112893;27;20526;-74
2022/04/06 08:25:25;;;;;;;27.77;3.80;;;;;;;;;;5082444;28;20063;-74
2022/04/06 08:27:52;;;;;;;24.65;3.55;;;;;;;;;;5078346;28;20410;-74
2022/04/06 08:30:22;;;;;;;29.88;3.53;;;;;;;;;;5082300;28;20109;-74
2022/04/06 08:32:51;;;;;;;22.30;3.88;;;;;;;;;;5076994;28;20128;-74
2022/04/06 08:35:18;;;;;;;22.10;3.72;;;;;;;;;;5082351;28;20502;-74
2022/04/06 08:37:46;;;;;;;21.60;3.33;;;;;;;;;;5079538;28;20048;-74
2022/04/06 08:40:13;;;;;;;19.67;3.45;;;;;;;;;;5080599;28;20056;-74
2022/04/06 08:42:41;;;;;;;23.27;3.65;;;;;;;;;;5083166;28;20105;-74
2022/04/06 08:45:08;;;;;;;21.02;3.55;;;;;;;;;;5078920;28;20071;-74
2022/04/06 08:47:36;;;;;;;20.50;3.58;;;;;;;;;;5079504;28;20059;-74
2022/04/06 08:50:07;;;;;;;24.08;3.50;;;;;;;;;;5079760;28;20713;-74
2022/04/06 08:52:34;;;;;;;24.58;4.05;;;;;;;;;;5072074;28;20071;-74
2022/04/06 08:55:02;;;;;;;18.85;3.05;;;;;;;;;;5081660;28;20048;-74
2022/04/06 08:57:29;;;;;;;23.90;3.55;;;;;;;;;;5069267;28;20059;-74
2022/04/06 08:59:56;;;;;;;21.65;3.97;;;;;;;;;;5082913;28;20086;-74
2022/04/06 09:02:24;;;;;;;18.10;3.28;;;;;;;;;;5082950;28;20059;-74
2022/04/06 09:04:53;;;;;;;19.98;3.20;;;;;;;;;;5084878;28;20052;-74
2022/04/06 09:07:22;;;;;;;20.55;3.90;;;;;;;;;;5080845;28;20143;-75
2022/04/06 09:09:51;;;;;;;20.85;3.67;;;;;;;;;;5084289;28;20088;-74
2022/04/06 09:12:19;;;;;;;21.38;4.07;;;;;;;;;;5075849;28;20040;-74
2022/04/06 09:14:47;;;;;;;20.30;3.90;;;;;;;;;;5083993;28;20076;-74
2022/04/06 09:17:18;;;;;;;15.27;3.17;;;;;;;;;;5087893;28;20067;-74
2022/04/06 09:19:47;;;;;;;23.55;3.92;;;;;;;;;;5082624;28;20517;-74
2022/04/06 09:22:14;;;;;;;24.30;3.70;;;;;;;;;;5084279;28;20047;-74
2022/04/06 09:24:43;;;;;;;21.42;3.55;;;;;;;;;;5083702;28;20083;-74
2022/04/06 09:27:10;;;;;;;21.33;3.13;;;;;;;;;;5080948;28;20499;-73
2022/04/06 09:29:37;;;;;;;22.67;3.70;;;;;;;;;;5083242;28;20049;-73
2022/04/06 09:32:08;;;;;;;16.83;3.83;;;;;;;;;;5081077;28;20051;-73
2022/04/06 09:34:35;;;;;;;20.98;3.40;;;;;;;;;;5082052;28;20044;-74
2022/04/06 09:37:17;;;;;;;23.05;3.47;;;;;;;;;;5082335;28;20051;-74
2022/04/06 09:39:47;;;;;;;20.38;3.72;;;;;;;;;;5077782;28;20053;-74
2022/04/06 09:42:21;;;;;;;21.38;3.60;;;;;;;;;;5084067;28;20109;-74
2022/04/06 09:47:44;;;;;;;16.83;2.90;;;;;;;;;;5114892;27;20079;-74
2022/04/06 09:50:12;;;;;;;27.08;4.00;;;;;;;;;;5079455;28;20044;-74
2022/04/06 09:52:40;;;;;;;26.30;3.67;;;;;;;;;;5080946;28;20056;-74
2022/04/06 09:55:10;;;;;;;23.25;3.72;;;;;;;;;;5082334;28;21411;-74
2022/04/06 09:57:40;;;;;;;18.50;3.40;;;;;;;;;;5077846;28;20105;-74
2022/04/06 10:00:08;;;;;;;23.20;3.83;;;;;;;;;;5075473;28;20143;-75
2022/04/06 10:02:36;;;;;;;22.35;4.03;;;;;;;;;;5081765;28;20474;-74
2022/04/06 10:05:04;;;;;;;25.05;3.55;;;;;;;;;;5083477;28;20052;-74
2022/04/06 10:07:31;;;;;;;19.52;3.25;;;;;;;;;;5114642;27;20150;-74
2022/04/06 10:10:00;;;;;;;25.30;4.38;;;;;;;;;;5083691;28;20052;-74
2022/04/06 10:12:29;;;;;;;26.30;3.85;;;;;;;;;;5090502;28;20497;-74
2022/04/06 10:14:56;;;;;;;28.85;4.32;;;;;;;;;;5082258;28;20045;-75
2022/04/06 10:17:24;;;;;;;27.92;4.35;;;;;;;;;;5077883;28;20308;-74
2022/04/06 10:19:54;;;;;;;24.40;4.43;;;;;;;;;;5082730;28;20052;-74
2022/04/06 10:22:27;;;;;;;26.83;4.55;;;;;;;;;;5086205;28;20153;-74
2022/04/06 10:24:57;;;;;;;22.90;4.63;;;;;;;;;;5090722;28;20112;-74
2022/04/06 10:27:26;;;;;;;17.08;3.55;;;;;;;;;;5117682;27;20054;-74
2022/04/06 10:30:12;;;;;;;23.67;3.45;;;;;;;;;;5090568;28;20097;-74
2022/04/06 10:32:40;;;;;;;24.50;3.97;;;;;;;;;;5086969;28;20059;-74
2022/04/06 10:35:24;;;;;;;25.20;4.18;;;;;;;;;;5091342;28;20059;-74
2022/04/06 10:37:53;;;;;;;30.30;4.45;;;;;;;;;;5086707;28;20063;-74
2022/04/06 10:40:21;;;;;;;29.27;5.38;;;;;;;;;;5091756;28;20048;-73
2022/04/06 10:42:48;;;;;;;25.73;4.18;;;;;;;;;;5086406;28;20138;-73
2022/04/06 10:45:34;;;;;;;30.42;4.85;;;;;;;;;;5088538;28;20085;-73
2022/04/06 10:48:12;;;;;;;20.65;3.58;;;;;;;;;;5087498;28;20087;-73
2022/04/06 10:50:40;;;;;;;27.60;3.95;;;;;;;;;;5086050;28;20090;-73
2022/04/06 10:53:26;;;;;;;22.83;4.28;;;;;;;;;;5084375;28;20075;-73
2022/04/06 10:56:06;;;;;;;21.42;4.30;;;;;;;;;;5082867;28;20063;-73
2022/04/06 10:58:52;;;;;;;24.95;4.60;;;;;;;;;;5081500;28;20060;-73
2022/04/06 11:01:19;;;;;;;22.17;3.78;;;;;;;;;;5077593;28;20055;-74
2022/04/06 11:03:58;;;;;;;28.75;4.15;;;;;;;;;;5083973;28;20048;-74
2022/04/06 11:06:44;;;;;;;24.00;4.30;;;;;;;;;;5081933;28;20088;-74
2022/04/06 11:12:10;;;;;;;32.22;4.93;;;;;;;;;;5119775;27;20085;-74
2022/04/06 11:14:37;;;;;;;21.00;4.03;;;;;;;;;;5085919;28;20043;-73
2022/04/06 11:17:24;;;;;;;29.30;4.90;;;;;;;;;;5118174;27;20048;-74
2022/04/06 11:19:53;;;;;;;26.40;4.38;;;;;;;;;;5085853;28;20071;-74
2022/04/06 11:22:23;;;;;;;26.30;5.03;;;;;;;;;;5086222;28;20059;-73
2022/04/06 11:24:50;;;;;;;24.67;4.20;;;;;;;;;;5086558;28;20059;-74
2022/04/06 11:27:27;;;;;;;25.70;4.57;;;;;;;;;;5084064;28;20056;-74
2022/04/06 11:29:59;;;;;;;28.42;4.50;;;;;;;;;;5082016;28;20701;-74
2022/04/06 11:32:26;;;;;;;26.30;4.20;;;;;;;;;;5081020;28;20056;-74
2022/04/06 11:34:59;;;;;;;22.25;4.70;;;;;;;;;;5117567;27;20047;-74
2022/04/06 11:37:27;;;;;;;26.77;4.55;;;;;;;;;;5077910;28;20080;-74
2022/04/06 11:39:57;;;;;;;28.95;4.90;;;;;;;;;;5072790;28;20064;-74
2022/04/06 11:42:25;;;;;;;25.80;4.88;;;;;;;;;;5084017;28;20092;-74
2022/04/06 11:44:52;;;;;;;29.08;4.70;;;;;;;;;;5086589;28;20085;-75
2022/04/06 11:47:28;;;;;;;30.58;5.30;;;;;;;;;;5084660;28;20048;-74
2022/04/06 11:49:56;;;;;;;28.08;5.28;;;;;;;;;;5086045;28;20059;-74
2022/04/06 11:52:23;;;;;;;32.42;5.10;;;;;;;;;;5085242;28;20066;-73
2022/04/06 11:54:52;;;;;;;26.92;4.80;;;;;;;;;;5086135;28;20048;-74
2022/04/06 11:57:19;;;;;;;27.65;4.88;;;;;;;;;;5083769;28;20128;-73
2022/04/06 11:59:53;;;;;;;26.80;5.85;;;;;;;;;;5083998;28;20059;-73
2022/04/06 12:02:20;;;;;;;31.35;4.90;;;;;;;;;;5080970;28;20531;-73
2022/04/06 12:04:48;;;;;;;28.73;4.82;;;;;;;;;;5082095;28;20048;-73
2022/04/06 12:07:20;;;;;;;22.75;4.65;;;;;;;;;;5085781;28;20058;-73
2022/04/06 12:09:48;;;;;;;27.38;4.55;;;;;;;;;;5086969;28;20066;-73
2022/04/06 12:12:16;;;;;;;29.67;5.25;;;;;;;;;;5079774;28;20060;-73
2022/04/06 12:14:43;;;;;;;29.67;4.90;;;;;;;;;;5074750;28;20101;-73
2022/04/06 12:17:11;;;;;;;24.13;4.75;;;;;;;;;;5086394;28;20044;-74
2022/04/06 12:19:38;;;;;;;25.27;4.78;;;;;;;;;;5084962;28;20059;-73
2022/04/06 12:22:10;;;;;;;24.50;4.80;;;;;;;;;;5092369;28;20075;-73
2022/04/06 12:24:39;;;;;;;25.98;5.20;;;;;;;;;;5094678;28;20155;-73
2022/04/06 12:27:07;;;;;;;31.75;4.53;;;;;;;;;;5087794;28;20052;-73
2022/04/06 12:29:35;;;;;;;25.58;4.47;;;;;;;;;;5088006;28;20187;-73
2022/04/06 12:32:03;;;;;;;29.85;5.00;;;;;;;;;;5088539;28;20136;-73
2022/04/06 12:34:37;;;;;;;19.05;3.92;;;;;;;;;;5080109;28;20044;-73
2022/04/06 12:39:51;;;;;;;30.17;5.68;;;;;;;;;;5062387;28;20063;-73
2022/04/06 12:42:19;;;;;;;30.95;5.20;;;;;;;;;;5084298;28;20521;-73
2022/04/06 12:44:57;;;;;;;20.02;4.30;;;;;;;;;;5083782;28;20429;-73
2022/04/06 12:47:24;;;;;;;22.60;4.53;;;;;;;;;;5087561;28;20058;-73
2022/04/06 12:49:52;;;;;;;26.70;4.50;;;;;;;;;;5119253;27;20063;-73
2022/04/06 12:52:20;;;;;;;28.58;4.93;;;;;;;;;;5077992;28;20040;-73
2022/04/06 12:54:48;;;;;;;24.08;4.20;;;;;;;;;;5080473;28;20044;-73
2022/04/06 12:57:18;;;;;;;25.70;4.03;;;;;;;;;;5083694;28;20105;-73
2022/04/06 12:59:55;;;;;;;27.67;5.07;;;;;;;;;;5081165;28;20063;-73
2022/04/06 13:02:25;;;;;;;27.65;4.53;;;;;;;;;;5083248;28;20179;-73
2022/04/06 13:04:53;;;;;;;23.42;4.40;;;;;;;;;;5080558;28;20115;-73
2022/04/06 13:07:20;;;;;;;22.35;5.32;;;;;;;;;;5079591;28;20068;-73
2022/04/06 13:09:50;;;;;;;20.65;4.07;;;;;;;;;;5074893;28;20063;-73
2022/04/06 13:12:18;;;;;;;18.95;3.83;;;;;;;;;;5078851;28;20464;-74
2022/04/06 13:14:49;;;;;;;24.17;4.32;;;;;;;;;;5085451;28;20049;-73
2022/04/06 13:17:16;;;;;;;23.10;4.05;;;;;;;;;;5084525;28;20084;-74
2022/04/06 13:19:44;;;;;;;18.63;3.70;;;;;;;;;;5077747;28;20056;-74
2022/04/06 13:22:11;;;;;;;20.20;4.05;;;;;;;;;;5086181;28;20047;-73
2022/04/06 13:24:38;;;;;;;16.95;3.17;;;;;;;;;;5084245;28;20589;-73
2022/04/06 13:27:06;;;;;;;16.13;3.42;;;;;;;;;;5080530;28;20130;-73
2022/04/06 13:29:34;;;;;;;26.02;4.40;;;;;;;;;;5084111;28;20058;-73
2022/04/06 13:32:03;;;;;;;23.80;4.00;;;;;;;;;;5080896;28;20159;-73
2022/04/06 13:34:30;;;;;;;24.17;4.15;;;;;;;;;;5081697;28;20040;-73
2022/04/06 13:36:58;;;;;;;17.52;3.22;;;;;;;;;;5084470;28;20074;-73
2022/04/06 13:39:25;;;;;;;16.30;3.45;;;;;;;;;;5079459;28;20502;-73
2022/04/06 13:41:55;;;;;;;17.20;3.22;;;;;;;;;;5116386;27;20067;-73
2022/04/06 13:44:24;;;;;;;18.05;3.40;;;;;;;;;;5114412;27;20144;-74
2022/04/06 13:46:53;;;;;;;15.85;3.60;;;;;;;;;;5082558;28;20043;-74
2022/04/06 13:49:21;;;;;;;18.83;3.53;;;;;;;;;;5080237;28;20043;-74
2022/04/06 13:51:48;;;;;;;19.10;3.05;;;;;;;;;;5085293;28;20056;-74
2022/04/06 13:54:17;;;;;;;16.50;3.15;;;;;;;;;;5086805;28;20156;-73
2022/04/06 13:56:44;;;;;;;14.88;3.17;;;;;;;;;;5083667;28;20083;-73
2022/04/06 13:59:12;;;;;;;19.23;3.47;;;;;;;;;;5086155;28;20052;-73
2022/04/06 14:01:39;;;;;;;14.88;3.40;;;;;;;;;;5085846;28;20777;-73
2022/04/06 14:04:08;;;;;;;15.35;2.90;;;;;;;;;;5087243;28;20127;-73
2022/04/06 14:06:35;;;;;;;12.93;2.78;;;;;;;;;;5083408;28;20052;-74
2022/04/06 14:09:03;;;;;;;12.93;2.45;;;;;;;;;;5083479;28;20105;-74
2022/04/06 14:11:30;;;;;;;12.43;2.45;;;;;;;;;;5077695;28;20114;-74
2022/04/06 14:13:58;;;;;;;7.18;1.80;;;;;;;;;;5084818;28;20056;-74
2022/04/06 14:16:25;;;;;;;11.73;2.50;;;;;;;;;;5082449;28;20036;-73
2022/04/06 14:18:55;;;;;;;8.93;2.13;;;;;;;;;;5081174;28;20059;-73
2022/04/06 14:21:24;;;;;;;13.27;2.58;;;;;;;;;;5082933;28;20105;-73
2022/04/06 14:23:51;;;;;;;8.07;2.00;;;;;;;;;;5080627;28;20044;-73
2022/04/06 14:26:19;;;;;;;13.43;2.47;;;;;;;;;;5079964;28;20052;-73
2022/04/06 14:28:47;;;;;;;13.48;2.92;;;;;;;;;;5083137;28;20048;-73
2022/04/06 14:31:14;;;;;;;17.27;2.92;;;;;;;;;;5086154;28;20048;-73
2022/04/06 14:33:42;;;;;;;23.02;3.45;;;;;;;;;;5085082;28;20192;-73
2022/04/06 14:36:09;;;;;;;12.93;3.25;;;;;;;;;;5082441;28;20048;-73
2022/04/06 14:38:37;;;;;;;12.40;2.83;;;;;;;;;;5083635;28;20106;-73
2022/04/06 14:41:07;;;;;;;12.13;2.45;;;;;;;;;;5083763;28;20055;-73
2022/04/06 14:43:35;;;;;;;16.80;3.35;;;;;;;;;;5084099;28;20112;-73
2022/04/06 14:46:03;;;;;;;15.45;3.30;;;;;;;;;;5092456;28;20051;-73
2022/04/06 14:48:31;;;;;;;14.73;2.60;;;;;;;;;;5089443;28;20131;-73
2022/04/06 14:50:58;;;;;;;13.27;3.00;;;;;;;;;;5092244;28;20494;-74